Contact Us:
Email: info@sawbill.com
Phone: (218)663-7150
Fax: (218)663-7980
Mail: 4620 Sawbill Trail
Box 2129
Tofte, MN 55615


Powered by
Movable Type 3.15
 
Sawbill Weather History Archives: October 2007
Current Sawbill Weather History | « September 2007 | November 2007 »


Date

High
Temperature

Low
Temperature

Barometric
Pressure

Relative
Humidity 7AM

9 AM
Temperature

Moisture

Snow

10/31/07 39 28 30.03 77% 30 Trace Trace
10/30/07 56 35 29.90 92% 44 .06"
10/29/07 52 34 29.91 87% 36 0
10/28/07 40 35 30.12 83% 39 0
10/27/07 44 24 30.33 73% 28 0
10/26/07 53 32 30.18 73% 35 0
10/25/07 49 31 30.14 71% 34 0
10/24/07 42 32 30.23 73% 32 .02"
10/23/07 44 33 30.21 77% 35 .29"
10/22/07 47 34 29.97 93% 38 0
10/21/07 48 39 30.00 78% 40 .1"
10/20/07 56 46 29.68 80% 46 0
10/19/07 52 46 29.50 96% 48 .17"
10/18/07 54 51 28.97 98% 53 2.2"
10/17/07 52 46 29.35 98% 52 .15"
10/16/07 47 42 29.77 98% 45 .2"
10/15/07 51 38 29.97 95% 45 .08"
10/14/07 49 32 30.15 94% 38 0
10/13/07 49 33 30.09 98% 36 0
10/12/07 47 31 29.87 87% 36 0
10/11/07 45 31 29.91 91% 38 0
10/10/07 44 34 30.18 85% 35 Trace
10/9/07 46 39 29.92 93% 40 .18" Trace
10/8/07 57 40 29.62 91% 40 .77"
10/7/07 66 57 29.83 98% 57 1.78"
10/6/07 57 51 29.88 98% 57 .45"
10/5/07 52 49 29.91 98% 51 .88"
10/4/07 67 42 30.12 78% 52 Trace
10/3/07 66 42 30.14 68% 46 0
10/2/07 59 46 29.65 95% 48 .7"
10/1/07 62 52 29.62 98% 54 Trace
 


Home I Trip Planning I Rentals and Outfitting I Reservations I Campgrounds I Sawbill Store I Sawbill News I Contact

© 1997 - 2017, Sawbill Canoe Outfitters, Inc. I Privacy Policy